createdAt,value
2023-02-06T00:01:43.011Z,20.60
2023-02-06T00:04:12.808Z,19.73
2023-02-06T00:06:41.131Z,20.77
2023-02-06T00:09:34.674Z,19.10
2023-02-06T00:12:02.720Z,18.70
2023-02-06T00:14:30.812Z,21.73
2023-02-06T00:17:01.016Z,22.07
2023-02-06T00:19:30.429Z,25.80
2023-02-06T00:21:58.461Z,22.17
2023-02-06T00:24:26.499Z,20.10
2023-02-06T00:26:54.576Z,20.07
2023-02-06T00:29:22.612Z,26.47
2023-02-06T00:31:50.695Z,22.03
2023-02-06T00:34:18.826Z,24.10
2023-02-06T00:36:48.199Z,24.73
2023-02-06T00:39:16.259Z,25.13
2023-02-06T00:41:44.307Z,25.60
2023-02-06T00:44:12.617Z,26.10
2023-02-06T00:46:40.762Z,24.30
2023-02-06T00:49:08.806Z,24.53
2023-02-06T00:51:38.815Z,25.63
2023-02-06T00:54:09.963Z,25.60
2023-02-06T00:56:38.203Z,23.63
2023-02-06T00:59:06.236Z,26.63
2023-02-06T01:01:34.322Z,25.07
2023-02-06T01:04:02.434Z,28.47
2023-02-06T01:06:31.917Z,27.80
2023-02-06T01:09:00.249Z,23.60
2023-02-06T01:11:30.824Z,30.63
2023-02-06T01:13:59.072Z,26.90
2023-02-06T01:16:27.135Z,26.63
2023-02-06T01:18:55.570Z,26.20
2023-02-06T01:21:26.424Z,23.90
2023-02-06T01:23:58.837Z,25.43
2023-02-06T01:26:28.320Z,25.37
2023-02-06T01:28:59.018Z,21.57
2023-02-06T01:31:29.921Z,21.43
2023-02-06T01:34:00.168Z,26.63
2023-02-06T01:36:28.804Z,24.00
2023-02-06T01:38:58.053Z,22.47
2023-02-06T01:41:26.316Z,25.00
2023-02-06T01:44:17.363Z,26.40
2023-02-06T01:46:47.874Z,27.80
2023-02-06T01:49:22.077Z,24.03
2023-02-06T01:51:52.485Z,27.17
2023-02-06T01:54:22.041Z,25.83
2023-02-06T01:56:55.728Z,25.63
2023-02-06T01:59:26.471Z,27.80
2023-02-06T02:01:54.614Z,31.23
2023-02-06T02:04:25.349Z,25.67
2023-02-06T02:07:06.753Z,28.77
2023-02-06T02:09:36.164Z,29.73
2023-02-06T02:12:04.844Z,24.67
2023-02-06T02:14:34.811Z,34.30
2023-02-06T02:17:16.249Z,25.20
2023-02-06T02:20:33.786Z,26.47
2023-02-06T02:23:27.541Z,29.10
2023-02-06T02:26:33.542Z,27.40
2023-02-06T02:29:40.579Z,26.70
2023-02-06T02:32:54.830Z,22.53
2023-02-06T02:35:37.669Z,28.27
2023-02-06T02:38:21.422Z,25.00
2023-02-06T02:40:58.187Z,28.87
2023-02-06T02:43:36.510Z,35.17
2023-02-06T02:46:14.281Z,32.83
2023-02-06T02:48:46.809Z,28.77
2023-02-06T02:51:16.391Z,28.03
2023-02-06T02:53:44.444Z,28.57
2023-02-06T02:56:19.166Z,34.90
2023-02-06T02:58:54.500Z,30.77
2023-02-06T03:01:32.122Z,29.63
2023-02-06T03:04:11.725Z,23.37
2023-02-06T03:07:10.337Z,27.50
2023-02-06T03:09:54.423Z,32.93
2023-02-06T03:12:33.944Z,28.77
2023-02-06T03:15:13.079Z,31.23
2023-02-06T03:17:48.735Z,27.23
2023-02-06T03:20:18.291Z,30.03
2023-02-06T03:22:50.431Z,31.23
2023-02-06T03:25:34.946Z,25.87
2023-02-06T03:28:06.246Z,32.07
2023-02-06T03:30:35.610Z,24.33
2023-02-06T03:33:09.176Z,31.73
2023-02-06T03:35:39.294Z,29.60
2023-02-06T03:38:09.579Z,29.80
2023-02-06T03:40:39.650Z,32.27
2023-02-06T03:43:08.855Z,30.07
2023-02-06T03:45:42.129Z,29.17
2023-02-06T03:48:17.618Z,29.83
2023-02-06T03:50:50.133Z,28.80
2023-02-06T03:53:22.242Z,31.80
2023-02-06T03:55:55.413Z,30.13
2023-02-06T03:58:24.600Z,28.60
2023-02-06T04:00:53.753Z,30.50
2023-02-06T04:03:22.878Z,30.07
2023-02-06T04:05:51.037Z,24.77
2023-02-06T04:08:20.486Z,28.47
2023-02-06T04:10:48.696Z,28.80
2023-02-06T04:13:18.134Z,27.83
2023-02-06T04:15:46.115Z,30.83
2023-02-06T04:18:14.136Z,31.93
2023-02-06T04:20:42.250Z,34.27
2023-02-06T04:23:13.073Z,31.63
2023-02-06T04:25:42.458Z,33.30
2023-02-06T04:28:13.459Z,28.77
2023-02-06T04:30:41.666Z,31.77
2023-02-06T04:33:09.732Z,27.80
2023-02-06T04:35:38.067Z,31.50
2023-02-06T04:38:06.289Z,29.10
2023-02-06T04:40:34.554Z,32.50
2023-02-06T04:43:03.892Z,34.30
2023-02-06T04:45:32.291Z,34.93
2023-02-06T04:48:00.292Z,25.43
2023-02-06T04:50:31.263Z,28.67
2023-02-06T04:52:59.590Z,30.50
2023-02-06T04:55:27.667Z,26.63
2023-02-06T04:57:55.768Z,28.60
2023-02-06T05:00:25.313Z,25.83
2023-02-06T05:02:53.413Z,29.30
2023-02-06T05:05:21.601Z,29.00
2023-02-06T05:07:49.716Z,28.13
2023-02-06T05:10:18.005Z,24.93
2023-02-06T05:12:46.964Z,27.57
2023-02-06T05:15:16.169Z,34.30
2023-02-06T05:17:45.761Z,27.53
2023-02-06T05:20:14.011Z,23.50
2023-02-06T05:22:42.289Z,28.97
2023-02-06T05:25:10.371Z,27.83
2023-02-06T05:27:38.410Z,26.90
2023-02-06T05:30:07.522Z,30.67
2023-02-06T05:32:35.564Z,31.40
2023-02-06T05:35:05.515Z,25.07
2023-02-06T05:37:33.729Z,28.33
2023-02-06T05:40:01.776Z,27.93
2023-02-06T05:42:29.897Z,30.30
2023-02-06T05:44:57.958Z,28.60
2023-02-06T05:47:26.544Z,31.47
2023-02-06T05:49:54.532Z,26.83
2023-02-06T05:52:24.047Z,27.27
2023-02-06T05:54:52.105Z,27.87
2023-02-06T05:57:20.389Z,24.60
2023-02-06T05:59:48.581Z,26.67
2023-02-06T06:02:16.784Z,28.07
2023-02-06T06:04:45.688Z,26.50
2023-02-06T06:07:13.984Z,24.13
2023-02-06T06:09:43.969Z,26.90
2023-02-06T06:12:12.166Z,26.50
2023-02-06T06:14:40.143Z,23.67
2023-02-06T06:17:08.178Z,25.63
2023-02-06T06:19:36.629Z,28.27
2023-02-06T06:22:04.856Z,27.07
2023-02-06T06:24:32.909Z,29.80
2023-02-06T06:27:03.650Z,24.43
2023-02-06T06:29:31.839Z,28.47
2023-02-06T06:31:59.884Z,28.33
2023-02-06T06:34:28.347Z,24.50
2023-02-06T06:36:56.384Z,25.57
2023-02-06T06:39:24.578Z,23.90
2023-02-06T06:41:52.620Z,27.17
2023-02-06T06:44:22.396Z,22.73
2023-02-06T06:46:50.410Z,22.70
2023-02-06T06:49:18.605Z,25.80
2023-02-06T06:51:49.685Z,26.40
2023-02-06T06:54:19.534Z,21.33
2023-02-06T06:56:47.600Z,22.47
2023-02-06T06:59:15.762Z,21.87
2023-02-06T07:01:45.146Z,23.50
2023-02-06T07:04:13.140Z,24.33
2023-02-06T07:06:41.208Z,21.23
2023-02-06T07:09:09.222Z,21.87
2023-02-06T07:11:37.258Z,22.73
2023-02-06T07:14:05.621Z,24.40
2023-02-06T07:16:34.002Z,20.90
2023-02-06T07:19:03.529Z,23.87
2023-02-06T07:21:31.529Z,21.20
2023-02-06T07:23:59.927Z,23.07
2023-02-06T07:26:27.943Z,22.50
2023-02-06T07:28:56.069Z,20.93
2023-02-06T07:31:24.326Z,20.90
2023-02-06T07:33:52.772Z,24.13
2023-02-06T07:36:22.138Z,22.70
2023-02-06T07:38:50.263Z,22.23
2023-02-06T07:41:18.385Z,22.20
2023-02-06T07:43:46.383Z,21.07
2023-02-06T07:46:14.497Z,21.77
2023-02-06T07:48:42.550Z,21.00
2023-02-06T07:51:11.127Z,20.93
2023-02-06T07:53:40.539Z,23.67
2023-02-06T07:56:14.126Z,21.60
2023-02-06T07:58:42.666Z,22.70
2023-02-06T08:01:11.267Z,21.60
2023-02-06T08:03:39.826Z,20.10
2023-02-06T08:06:12.214Z,20.93
2023-02-06T08:08:42.105Z,21.00
2023-02-06T08:11:13.544Z,19.50
2023-02-06T08:13:41.720Z,21.73
2023-02-06T08:16:13.499Z,22.40
2023-02-06T08:18:42.121Z,23.33
2023-02-06T08:21:17.862Z,21.73
2023-02-06T08:23:47.662Z,22.07
2023-02-06T08:26:18.430Z,20.67
2023-02-06T08:28:50.661Z,20.17
2023-02-06T08:31:22.722Z,19.10
2023-02-06T08:33:51.449Z,17.40
2023-02-06T08:36:21.521Z,21.67
2023-02-06T08:38:52.280Z,20.30
2023-02-06T08:41:24.374Z,19.07
2023-02-06T08:43:54.933Z,17.23
2023-02-06T08:46:25.293Z,19.43
2023-02-06T08:48:57.518Z,18.83
2023-02-06T08:51:27.831Z,17.13
2023-02-06T08:53:59.733Z,19.57
2023-02-06T08:56:29.052Z,16.97
2023-02-06T08:58:59.524Z,18.03
2023-02-06T09:01:29.000Z,17.40
2023-02-06T09:03:58.938Z,15.00
2023-02-06T09:06:27.549Z,16.53
2023-02-06T09:08:58.868Z,16.30
2023-02-06T09:11:28.030Z,15.10
2023-02-06T09:13:58.366Z,16.23
2023-02-06T09:16:28.571Z,17.00
2023-02-06T09:19:02.025Z,15.93
2023-02-06T09:21:33.610Z,15.23
2023-02-06T09:24:07.557Z,13.97
2023-02-06T09:26:44.833Z,13.67
2023-02-06T09:29:18.457Z,14.83
2023-02-06T09:31:47.181Z,12.53
2023-02-06T09:34:15.294Z,12.60
2023-02-06T09:36:43.457Z,15.20
2023-02-06T09:39:12.920Z,13.30
2023-02-06T09:41:43.965Z,19.47
2023-02-06T09:44:19.318Z,10.53
2023-02-06T09:46:52.863Z,11.37
2023-02-06T09:49:26.376Z,9.53
2023-02-06T09:52:24.797Z,8.77
2023-02-06T09:55:04.322Z,12.17
2023-02-06T09:57:44.754Z,11.63
2023-02-06T10:00:29.610Z,9.20
2023-02-06T10:03:19.045Z,9.50
2023-02-06T10:05:54.972Z,9.20
2023-02-06T10:08:30.108Z,7.93
2023-02-06T10:11:03.879Z,7.33
2023-02-06T10:13:37.675Z,8.80
2023-02-06T10:16:14.929Z,6.10
2023-02-06T10:18:49.254Z,10.40
2023-02-06T10:21:29.478Z,7.67
2023-02-06T10:24:04.468Z,10.17
2023-02-06T10:26:38.257Z,7.63
2023-02-06T10:29:10.703Z,12.07
2023-02-06T10:31:56.278Z,10.33
2023-02-06T10:35:03.907Z,14.97
2023-02-06T10:37:57.866Z,7.03
2023-02-06T10:40:42.408Z,10.40
2023-02-06T10:43:24.030Z,7.60
2023-02-06T10:46:02.032Z,5.33
2023-02-06T10:48:35.641Z,7.63
2023-02-06T10:51:18.726Z,9.50
2023-02-06T10:53:52.939Z,11.37
2023-02-06T10:56:27.400Z,6.90
2023-02-06T10:59:02.227Z,6.60
2023-02-06T11:01:36.956Z,7.87
2023-02-06T11:04:13.143Z,5.27
2023-02-06T11:06:43.460Z,8.27
2023-02-06T11:09:12.000Z,8.07
2023-02-06T11:11:46.675Z,6.57
2023-02-06T11:14:25.055Z,5.97
2023-02-06T11:16:54.564Z,7.97
2023-02-06T11:19:28.205Z,6.80
2023-02-06T11:22:09.785Z,5.10
2023-02-06T11:24:38.907Z,5.70
2023-02-06T11:27:17.951Z,6.60
2023-02-06T11:29:52.162Z,6.33
2023-02-06T11:32:35.898Z,6.23
2023-02-06T11:35:08.576Z,7.90
2023-02-06T11:37:39.899Z,7.80
2023-02-06T11:40:27.862Z,6.53
2023-02-06T11:43:19.252Z,7.80
2023-02-06T11:45:52.116Z,11.47
2023-02-06T11:48:42.470Z,8.60
2023-02-06T11:51:13.827Z,9.20
2023-02-06T11:53:57.642Z,9.43
2023-02-06T11:56:28.253Z,8.53
2023-02-06T11:59:07.112Z,11.73
2023-02-06T12:01:47.514Z,7.93
2023-02-06T12:04:23.694Z,12.53
2023-02-06T12:06:59.537Z,7.37
2023-02-06T12:09:28.775Z,10.10
2023-02-06T12:12:02.852Z,9.37
2023-02-06T12:14:38.284Z,9.60
2023-02-06T12:17:27.998Z,10.03
2023-02-06T12:20:05.216Z,6.73
2023-02-06T12:22:40.327Z,10.37
2023-02-06T12:25:26.981Z,10.27
2023-02-06T12:28:00.761Z,8.97
2023-02-06T12:30:37.555Z,11.03
2023-02-06T12:33:14.012Z,6.70
2023-02-06T12:35:47.974Z,7.23
2023-02-06T12:38:27.212Z,6.87
2023-02-06T12:41:11.206Z,6.73
2023-02-06T12:43:42.108Z,5.70
2023-02-06T12:46:18.052Z,7.47
2023-02-06T12:48:54.192Z,7.43
2023-02-06T12:51:28.471Z,5.77
2023-02-06T12:54:05.498Z,6.03
2023-02-06T12:56:40.709Z,4.83
2023-02-06T12:59:56.760Z,6.20
2023-02-06T13:02:48.371Z,4.57
2023-02-06T13:05:33.811Z,3.63
2023-02-06T13:08:10.250Z,5.57
2023-02-06T13:10:40.312Z,5.93
2023-02-06T13:13:27.006Z,5.27
2023-02-06T13:15:57.497Z,7.10
2023-02-06T13:18:54.133Z,6.47
2023-02-06T13:21:28.780Z,5.90
2023-02-06T13:24:16.551Z,5.37
2023-02-06T13:27:12.875Z,5.37
2023-02-06T13:29:45.217Z,5.13
2023-02-06T13:32:46.161Z,4.40
2023-02-06T13:35:27.355Z,5.17
2023-02-06T13:38:38.261Z,4.63
2023-02-06T13:41:30.562Z,4.73
2023-02-06T13:44:05.126Z,4.17
2023-02-06T13:47:18.093Z,5.47
2023-02-06T13:50:25.846Z,4.77
2023-02-06T13:53:30.616Z,4.80
2023-02-06T13:56:28.984Z,8.53
2023-02-06T13:59:05.975Z,10.63
2023-02-06T14:01:34.799Z,10.33
2023-02-06T14:04:12.254Z,7.30
2023-02-06T14:06:58.962Z,5.47
2023-02-06T14:09:56.837Z,4.97
2023-02-06T14:12:44.319Z,4.43
2023-02-06T14:15:32.484Z,5.27
2023-02-06T14:18:26.952Z,4.90
2023-02-06T14:21:08.880Z,5.87
2023-02-06T14:24:00.617Z,5.33
2023-02-06T14:26:40.776Z,8.73
2023-02-06T14:29:30.915Z,5.23
2023-02-06T14:32:22.345Z,9.97
2023-02-06T14:35:07.039Z,7.83
2023-02-06T14:37:57.108Z,5.70
2023-02-06T14:40:29.779Z,5.40
2023-02-06T14:43:03.325Z,4.10
2023-02-06T14:45:42.205Z,5.00
2023-02-06T14:48:21.875Z,4.90
2023-02-06T14:50:56.325Z,5.27
2023-02-06T14:53:29.060Z,6.80
2023-02-06T14:56:10.344Z,6.17
2023-02-06T14:58:38.421Z,6.07
2023-02-06T15:01:21.538Z,4.67
2023-02-06T15:03:54.521Z,3.80
2023-02-06T15:06:36.530Z,4.33
2023-02-06T15:09:06.360Z,7.20
2023-02-06T15:11:35.452Z,6.20
2023-02-06T15:14:06.562Z,4.23
2023-02-06T15:16:48.844Z,6.43
2023-02-06T15:19:20.846Z,4.73
2023-02-06T15:21:50.131Z,7.47
2023-02-06T15:24:58.716Z,3.93
2023-02-06T15:27:31.026Z,4.50
2023-02-06T15:30:00.384Z,5.57
2023-02-06T15:32:38.553Z,5.73
2023-02-06T15:35:22.215Z,6.97
2023-02-06T15:37:51.291Z,5.07
2023-02-06T15:40:27.682Z,4.57
2023-02-06T15:42:56.527Z,5.77
2023-02-06T15:45:29.644Z,5.83
2023-02-06T15:48:08.514Z,8.43
2023-02-06T15:50:37.096Z,4.80
2023-02-06T15:53:19.094Z,7.07
2023-02-06T15:55:56.546Z,6.27
2023-02-06T15:58:26.105Z,7.40
2023-02-06T16:00:56.667Z,6.73
2023-02-06T16:03:30.292Z,7.43
2023-02-06T16:05:58.872Z,6.80
2023-02-06T16:08:33.043Z,5.73
2023-02-06T16:11:05.496Z,6.93
2023-02-06T16:13:34.001Z,5.00
2023-02-06T16:16:08.322Z,7.27
2023-02-06T16:18:39.625Z,6.90
2023-02-06T16:21:28.809Z,7.17
2023-02-06T16:24:16.452Z,5.50
2023-02-06T16:26:47.956Z,5.07
2023-02-06T16:29:26.775Z,5.23
2023-02-06T16:32:00.971Z,8.40
2023-02-06T16:34:39.083Z,5.73
2023-02-06T16:37:12.828Z,6.67
2023-02-06T16:39:42.995Z,5.07
2023-02-06T16:42:18.559Z,6.90
2023-02-06T16:44:50.250Z,7.03
2023-02-06T16:47:21.895Z,5.17
2023-02-06T16:49:52.166Z,5.17
2023-02-06T16:52:25.460Z,6.90
2023-02-06T16:54:55.637Z,6.37
2023-02-06T16:57:29.042Z,5.23
2023-02-06T16:59:57.792Z,6.63
2023-02-06T17:02:27.802Z,5.17
2023-02-06T17:04:57.420Z,9.27
2023-02-06T17:07:31.669Z,5.93
2023-02-06T17:10:00.280Z,5.33
2023-02-06T17:12:29.188Z,5.10
2023-02-06T17:14:58.375Z,4.97
2023-02-06T17:17:27.142Z,7.17
2023-02-06T17:19:56.463Z,6.43
2023-02-06T17:22:24.828Z,8.33
2023-02-06T17:24:52.856Z,6.07
2023-02-06T17:27:22.842Z,5.13
2023-02-06T17:29:53.689Z,5.37
2023-02-06T17:32:22.973Z,4.47
2023-02-06T17:34:54.020Z,8.07
2023-02-06T17:37:23.446Z,6.77
2023-02-06T17:39:53.100Z,9.97
2023-02-06T17:42:23.132Z,10.53
2023-02-06T17:44:51.394Z,5.97
2023-02-06T17:47:19.442Z,6.63
2023-02-06T17:49:47.760Z,6.33
2023-02-06T17:52:16.160Z,5.67
2023-02-06T17:54:45.729Z,5.40
2023-02-06T17:57:14.277Z,4.93
2023-02-06T17:59:42.296Z,5.50
2023-02-06T18:02:14.605Z,7.10
2023-02-06T18:04:42.835Z,4.57
2023-02-06T18:07:10.916Z,4.53
2023-02-06T18:09:41.034Z,8.57
2023-02-06T18:12:11.464Z,8.07
2023-02-06T18:14:40.667Z,11.33
2023-02-06T18:17:09.336Z,10.20
2023-02-06T18:19:42.040Z,9.70
2023-02-06T18:22:11.901Z,10.27
2023-02-06T18:24:40.627Z,8.73
2023-02-06T18:27:11.084Z,6.43
2023-02-06T18:29:49.430Z,4.33
2023-02-06T18:32:20.477Z,4.83
2023-02-06T18:34:49.035Z,4.93
2023-02-06T18:37:17.578Z,4.60
2023-02-06T18:39:45.601Z,7.40
2023-02-06T18:42:38.155Z,6.87
2023-02-06T18:45:06.799Z,8.03
2023-02-06T18:47:34.786Z,5.13
2023-02-06T18:50:03.017Z,5.17
2023-02-06T18:52:31.995Z,5.73
2023-02-06T18:55:00.148Z,5.27
2023-02-06T18:57:29.636Z,6.30
2023-02-06T18:59:58.797Z,6.03
2023-02-06T19:02:27.449Z,6.67
2023-02-06T19:04:55.467Z,7.17
2023-02-06T19:07:23.475Z,11.50
2023-02-06T19:09:51.505Z,9.57
2023-02-06T19:12:19.582Z,6.17
2023-02-06T19:14:49.132Z,6.73
2023-02-06T19:17:18.162Z,6.53
2023-02-06T19:19:46.167Z,7.90
2023-02-06T19:22:14.242Z,7.27
2023-02-06T19:24:42.874Z,6.90
2023-02-06T19:27:14.654Z,4.13
2023-02-06T19:29:43.012Z,10.47
2023-02-06T19:32:12.491Z,6.33
2023-02-06T19:34:44.056Z,5.43
2023-02-06T19:37:16.721Z,4.60
2023-02-06T19:39:45.324Z,8.00
2023-02-06T19:42:15.464Z,7.40
2023-02-06T19:44:44.141Z,6.73
2023-02-06T19:47:13.495Z,4.43
2023-02-06T19:49:43.535Z,6.53
2023-02-06T19:52:14.390Z,7.40
2023-02-06T19:54:42.632Z,5.43
2023-02-06T19:57:10.880Z,7.03
2023-02-06T19:59:39.000Z,5.57
2023-02-06T20:02:07.081Z,6.97
2023-02-06T20:04:37.891Z,5.87
2023-02-06T20:07:06.199Z,5.50
2023-02-06T20:09:34.519Z,7.17
2023-02-06T20:12:02.974Z,5.57
2023-02-06T20:14:31.615Z,6.90
2023-02-06T20:16:59.760Z,6.80
2023-02-06T20:19:29.516Z,6.27
2023-02-06T20:22:00.859Z,6.30
2023-02-06T20:24:31.991Z,8.80
2023-02-06T20:27:05.807Z,7.60
2023-02-06T20:29:36.464Z,7.37
2023-02-06T20:32:06.221Z,5.27
2023-02-06T20:34:35.841Z,8.73
2023-02-06T20:37:05.911Z,7.87
2023-02-06T20:39:34.552Z,7.10
2023-02-06T20:42:03.215Z,6.53
2023-02-06T20:44:31.401Z,5.97
2023-02-06T20:46:59.431Z,7.23
2023-02-06T20:49:31.131Z,4.70
2023-02-06T20:51:59.711Z,5.13
2023-02-06T20:54:30.756Z,5.73
2023-02-06T20:57:00.332Z,9.17
2023-02-06T20:59:29.292Z,5.63
2023-02-06T21:01:57.286Z,7.57
2023-02-06T21:04:25.722Z,5.97
2023-02-06T21:06:53.828Z,5.30
2023-02-06T21:09:21.903Z,5.20
2023-02-06T21:11:51.527Z,5.43
2023-02-06T21:14:20.497Z,7.47
2023-02-06T21:16:49.221Z,5.83
2023-02-06T21:19:19.726Z,6.20
2023-02-06T21:21:48.694Z,8.03
2023-02-06T21:24:18.312Z,4.77
2023-02-06T21:26:46.365Z,6.40
2023-02-06T21:29:16.650Z,6.00
2023-02-06T21:31:46.383Z,5.40
2023-02-06T21:34:18.388Z,6.63
2023-02-06T21:36:47.267Z,6.47
2023-02-06T21:39:18.385Z,6.30
2023-02-06T21:41:47.631Z,5.67
2023-02-06T21:44:16.960Z,7.33
2023-02-06T21:46:44.989Z,5.20
2023-02-06T21:49:14.280Z,6.27
2023-02-06T21:51:42.473Z,6.13
2023-02-06T21:54:10.999Z,6.50
2023-02-06T21:56:39.873Z,6.37
2023-02-06T21:59:09.139Z,6.50
2023-02-06T22:01:40.839Z,4.70
2023-02-06T22:04:11.023Z,4.53
2023-02-06T22:06:39.638Z,5.87
2023-02-06T22:09:12.579Z,5.10
2023-02-06T22:11:41.548Z,7.80
2023-02-06T22:14:13.819Z,7.10
2023-02-06T22:16:46.415Z,6.83
2023-02-06T22:19:15.622Z,5.70
2023-02-06T22:21:43.723Z,5.40
2023-02-06T22:24:12.950Z,7.43
2023-02-06T22:26:41.480Z,6.37
2023-02-06T22:29:13.868Z,5.50
2023-02-06T22:31:44.904Z,6.60
2023-02-06T22:34:17.552Z,5.40
2023-02-06T22:36:45.912Z,5.17
2023-02-06T22:39:16.010Z,8.93
2023-02-06T22:41:46.786Z,6.27
2023-02-06T22:44:17.077Z,6.17
2023-02-06T22:46:49.918Z,6.23
2023-02-06T22:49:19.670Z,6.80
2023-02-06T22:51:48.290Z,6.23
2023-02-06T22:54:16.533Z,6.90
2023-02-06T22:56:45.392Z,5.97
2023-02-06T22:59:16.824Z,4.77
2023-02-06T23:01:48.734Z,6.47
2023-02-06T23:04:19.422Z,8.83
2023-02-06T23:06:48.159Z,6.83
2023-02-06T23:09:20.309Z,7.30
2023-02-06T23:11:49.074Z,6.53
2023-02-06T23:14:18.728Z,7.13
2023-02-06T23:16:48.875Z,7.27
2023-02-06T23:19:18.936Z,6.00
2023-02-06T23:21:49.606Z,8.03
2023-02-06T23:24:20.149Z,6.20
2023-02-06T23:26:50.558Z,5.67
2023-02-06T23:29:20.766Z,5.73
2023-02-06T23:31:50.801Z,6.40
2023-02-06T23:34:23.503Z,8.90
2023-02-06T23:36:52.789Z,7.10
2023-02-06T23:39:20.966Z,5.93
2023-02-06T23:41:49.097Z,7.40
2023-02-06T23:44:17.223Z,6.57
2023-02-06T23:46:45.398Z,7.43
2023-02-06T23:49:14.765Z,6.07
2023-02-06T23:51:42.878Z,6.80
2023-02-06T23:54:10.999Z,5.60
2023-02-06T23:56:39.733Z,8.50
2023-02-06T23:59:07.855Z,7.10
